Time;durP1;ratioP1;P1;durP2;ratioP2;P2;SDS_P1;SDS_P2;PMS_P1;PMS_P2;Temp;Humidity;BMP_temperature;BMP_pressure;BME280_temperature;BME280_humidity;BME280_pressure;Samples;Min_cycle;Max_cycle;Signal;HPM_P1;HPM_P2
2024/04/04 00:00:22;;;;;;;6.73;1.30;;;12.80;99.90;;;;;;7283086;19;20188;-78
2024/04/04 00:02:52;;;;;;;6.50;1.20;;;12.70;99.90;;;;;;7284283;19;20296;-78
2024/04/04 00:05:18;;;;;;;6.30;1.20;;;12.80;99.90;;;;;;7282411;19;20190;-78
2024/04/04 00:07:44;;;;;;;7.67;1.30;;;12.80;99.90;;;;;;7293814;19;20259;-78
2024/04/04 00:10:10;;;;;;;5.20;1.10;;;12.80;99.90;;;;;;7302956;19;20699;-78
2024/04/04 00:12:35;;;;;;;4.90;1.10;;;12.90;99.90;;;;;;7282552;19;20198;-78
2024/04/04 00:15:01;;;;;;;5.43;1.50;;;13.00;99.90;;;;;;7282344;19;20205;-78
2024/04/04 00:17:27;;;;;;;6.37;1.30;;;13.00;99.90;;;;;;7281891;19;20191;-78
2024/04/04 00:19:53;;;;;;;6.53;1.30;;;13.00;99.90;;;;;;7282591;19;20243;-78
2024/04/04 00:22:18;;;;;;;7.20;1.03;;;13.10;99.90;;;;;;7281266;19;20734;-78
2024/04/04 00:24:44;;;;;;;5.37;1.03;;;13.10;99.90;;;;;;7286594;19;20189;-78
2024/04/04 00:27:10;;;;;;;8.93;1.13;;;13.10;99.90;;;;;;7303564;19;20290;-78
2024/04/04 00:29:36;;;;;;;8.23;1.00;;;13.20;99.90;;;;;;7281637;19;20595;-78
2024/04/04 00:32:01;;;;;;;6.33;1.30;;;13.20;99.90;;;;;;7281510;19;20203;-78
2024/04/04 00:34:27;;;;;;;5.83;1.17;;;13.20;99.90;;;;;;7281072;19;20212;-78
2024/04/04 00:36:53;;;;;;;4.17;0.80;;;13.20;99.90;;;;;;7279796;19;20280;-78
2024/04/04 00:39:19;;;;;;;4.00;0.83;;;13.20;99.90;;;;;;7282333;19;20603;-78
2024/04/04 00:41:44;;;;;;;5.07;0.87;;;13.20;99.90;;;;;;7287800;19;20208;-78
2024/04/04 00:44:10;;;;;;;5.70;1.10;;;13.20;99.90;;;;;;7301141;19;20187;-78
2024/04/04 00:46:36;;;;;;;8.53;1.30;;;13.20;99.90;;;;;;7281328;19;20212;-78
2024/04/04 00:49:02;;;;;;;9.17;1.40;;;13.20;99.90;;;;;;7283474;19;20187;-78
2024/04/04 00:51:29;;;;;;;6.63;1.00;;;12.90;99.90;;;;;;7283342;19;20183;-78
2024/04/04 00:53:55;;;;;;;5.70;1.27;;;12.90;99.90;;;;;;7288192;19;20669;-78
2024/04/04 00:56:21;;;;;;;7.63;1.10;;;12.90;99.90;;;;;;7284434;19;20962;-78
2024/04/04 00:58:47;;;;;;;6.37;1.10;;;12.80;99.90;;;;;;7287679;19;20196;-78
2024/04/04 01:01:14;;;;;;;8.10;1.23;;;12.80;99.90;;;;;;7310543;19;20236;-78
2024/04/04 01:03:40;;;;;;;7.60;1.20;;;12.70;99.90;;;;;;7301617;19;20194;-78
2024/04/04 01:06:06;;;;;;;5.30;0.90;;;12.70;99.90;;;;;;7287742;19;20654;-78
2024/04/04 01:08:33;;;;;;;5.30;1.00;;;12.80;99.90;;;;;;7288845;19;20195;-78
2024/04/04 01:11:00;;;;;;;7.40;0.90;;;12.70;99.90;;;;;;7287739;19;20213;-78
2024/04/04 01:13:25;;;;;;;6.93;1.20;;;12.80;99.90;;;;;;7286493;19;20193;-78
2024/04/04 01:15:51;;;;;;;5.87;1.07;;;12.80;99.90;;;;;;7287611;19;20227;-78
2024/04/04 01:18:19;;;;;;;6.20;1.63;;;12.80;99.90;;;;;;7287450;19;20664;-78
2024/04/04 01:20:45;;;;;;;6.50;1.67;;;12.70;99.90;;;;;;7292518;19;20201;-78
2024/04/04 01:23:11;;;;;;;6.53;1.50;;;12.70;99.90;;;;;;7308680;19;20232;-78
2024/04/04 01:25:36;;;;;;;7.03;1.40;;;12.70;99.90;;;;;;7287867;19;20541;-78
2024/04/04 01:28:02;;;;;;;6.47;1.60;;;12.70;99.90;;;;;;7289178;19;20249;-78
2024/04/04 01:30:28;;;;;;;10.33;1.73;;;12.60;99.90;;;;;;7284638;19;20636;-78
2024/04/04 01:32:54;;;;;;;7.00;1.80;;;12.60;99.90;;;;;;7286955;19;20206;-78
2024/04/04 01:35:19;;;;;;;8.37;1.83;;;12.60;99.90;;;;;;7288155;19;20223;-78
2024/04/04 01:37:45;;;;;;;9.17;1.83;;;12.50;99.90;;;;;;7286298;19;20188;-79
2024/04/04 01:40:11;;;;;;;8.90;1.87;;;12.40;99.90;;;;;;7307866;19;20195;-79
2024/04/04 01:42:37;;;;;;;7.03;1.73;;;12.50;99.90;;;;;;7287014;19;20309;-79
2024/04/04 01:45:03;;;;;;;8.43;2.03;;;12.40;99.90;;;;;;7287268;19;20197;-78
2024/04/04 01:47:29;;;;;;;7.83;2.37;;;12.50;99.90;;;;;;7287696;19;20197;-78
2024/04/04 01:49:55;;;;;;;7.87;2.30;;;12.50;99.90;;;;;;7285331;19;20287;-78
2024/04/04 01:52:21;;;;;;;11.17;1.83;;;12.50;99.90;;;;;;7285556;19;20214;-78
2024/04/04 01:54:47;;;;;;;11.43;2.27;;;12.60;99.90;;;;;;7288201;19;20195;-78
2024/04/04 01:57:12;;;;;;;10.43;2.03;;;12.70;99.90;;;;;;7308083;19;20194;-78
2024/04/04 01:59:38;;;;;;;14.63;2.27;;;12.70;99.90;;;;;;7285578;19;20217;-78
2024/04/04 02:02:04;;;;;;;14.13;2.27;;;12.80;99.90;;;;;;7285437;19;20735;-78
2024/04/04 02:04:30;;;;;;;8.20;2.13;;;12.80;99.90;;;;;;7287496;19;20193;-79
2024/04/04 02:06:55;;;;;;;11.97;2.40;;;12.80;99.90;;;;;;7287572;19;20199;-78
2024/04/04 02:09:22;;;;;;;14.47;2.73;;;12.70;99.90;;;;;;7285138;19;20188;-78
2024/04/04 02:11:48;;;;;;;12.47;2.57;;;12.80;99.90;;;;;;7285355;19;20284;-78
2024/04/04 02:14:14;;;;;;;13.97;2.33;;;12.80;99.90;;;;;;7301959;19;20516;-78
2024/04/04 02:16:41;;;;;;;16.27;2.63;;;12.80;99.90;;;;;;7300121;19;20221;-78
2024/04/04 02:19:07;;;;;;;13.00;2.50;;;12.80;99.90;;;;;;7284966;19;20713;-78
2024/04/04 02:21:33;;;;;;;19.07;3.07;;;12.80;99.90;;;;;;7287425;19;20197;-78
2024/04/04 02:23:59;;;;;;;13.30;2.30;;;12.90;99.90;;;;;;7286858;19;20262;-78
2024/04/04 02:26:24;;;;;;;16.87;2.50;;;13.00;99.90;;;;;;7285623;19;20212;-78
2024/04/04 02:28:50;;;;;;;18.07;2.53;;;13.00;99.90;;;;;;7285650;19;20988;-78
2024/04/04 02:31:16;;;;;;;15.90;2.70;;;13.00;99.90;;;;;;7286326;19;20198;-78
2024/04/04 02:33:42;;;;;;;18.87;3.00;;;13.10;99.90;;;;;;7309054;19;20199;-79
2024/04/04 02:36:08;;;;;;;12.17;2.23;;;13.10;99.90;;;;;;7284124;19;20198;-78
2024/04/04 02:38:34;;;;;;;15.07;2.47;;;13.20;99.90;;;;;;7284329;19;20562;-78
2024/04/04 02:41:00;;;;;;;11.77;2.67;;;13.20;99.90;;;;;;7286514;19;20188;-79
2024/04/04 02:43:27;;;;;;;19.47;3.13;;;13.10;99.90;;;;;;7287265;19;20189;-79
2024/04/04 02:46:02;;;;;;;17.23;2.87;;;13.20;99.90;;;;;;7283053;19;20259;-79
2024/04/04 02:48:28;;;;;;;22.20;3.37;;;13.20;99.90;;;;;;7286374;19;20193;-79
2024/04/04 02:50:57;;;;;;;18.43;3.00;;;13.30;99.90;;;;;;7284876;19;20189;-79
2024/04/04 02:53:24;;;;;;;19.03;3.00;;;13.30;99.90;;;;;;7282378;19;20188;-78
2024/04/04 02:55:57;;;;;;;20.00;2.77;;;13.30;99.90;;;;;;7283545;19;20184;-78
2024/04/04 02:58:24;;;;;;;21.60;3.13;;;13.30;99.90;;;;;;7282047;19;20694;-79
2024/04/04 03:00:51;;;;;;;16.70;2.83;;;13.30;99.90;;;;;;7283058;19;20215;-79
2024/04/04 03:03:17;;;;;;;17.83;3.13;;;13.30;99.90;;;;;;7284616;19;20195;-78
2024/04/04 03:05:44;;;;;;;20.60;3.40;;;13.40;99.90;;;;;;7305005;19;20199;-79
2024/04/04 03:08:10;;;;;;;15.60;2.90;;;13.40;99.90;;;;;;7285552;19;20189;-79
2024/04/04 03:10:37;;;;;;;24.93;3.50;;;13.40;99.90;;;;;;7283461;19;20197;-79
2024/04/04 03:13:03;;;;;;;23.23;3.10;;;13.40;99.90;;;;;;7283812;19;20188;-78
2024/04/04 03:15:30;;;;;;;21.47;3.23;;;13.40;99.90;;;;;;7278930;19;20189;-78
2024/04/04 03:17:56;;;;;;;23.17;3.07;;;13.50;99.90;;;;;;7283782;19;20223;-78
2024/04/04 03:20:22;;;;;;;16.60;2.80;;;13.50;99.90;;;;;;7281858;19;20235;-78
2024/04/04 03:22:48;;;;;;;19.43;3.20;;;13.60;99.90;;;;;;7283735;19;20209;-78
2024/04/04 03:25:14;;;;;;;19.17;2.60;;;13.50;99.90;;;;;;7295833;19;20584;-78
2024/04/04 03:27:40;;;;;;;16.90;3.00;;;13.50;99.90;;;;;;7296954;19;20191;-78
2024/04/04 03:30:07;;;;;;;19.33;3.00;;;13.40;99.90;;;;;;7280069;19;20193;-78
2024/04/04 03:32:33;;;;;;;19.43;2.83;;;13.50;99.90;;;;;;7281543;19;20288;-79
2024/04/04 03:34:59;;;;;;;23.07;3.20;;;13.40;99.90;;;;;;7284329;19;20193;-78
2024/04/04 03:37:25;;;;;;;19.80;3.77;;;13.40;99.90;;;;;;7284624;19;20195;-78
2024/04/04 03:39:53;;;;;;;22.00;3.43;;;13.40;99.90;;;;;;7283020;19;20296;-78
2024/04/04 03:42:18;;;;;;;20.60;3.77;;;13.40;99.90;;;;;;7283198;19;20182;-78
2024/04/04 03:44:44;;;;;;;21.63;3.10;;;13.40;99.90;;;;;;7297189;19;20191;-78
2024/04/04 03:47:10;;;;;;;18.70;2.67;;;13.50;99.90;;;;;;7302865;19;20202;-78
2024/04/04 03:49:36;;;;;;;19.77;2.77;;;13.50;99.90;;;;;;7283648;19;20196;-78
2024/04/04 03:52:05;;;;;;;19.20;2.97;;;13.40;99.90;;;;;;7283887;19;20541;-79
2024/04/04 03:54:31;;;;;;;21.73;3.70;;;13.50;99.90;;;;;;7283899;19;20641;-79
2024/04/04 03:56:57;;;;;;;17.83;2.70;;;13.50;99.90;;;;;;7283540;19;20258;-79
2024/04/04 03:59:23;;;;;;;13.77;2.57;;;13.50;99.90;;;;;;7283069;19;20314;-78
2024/04/04 04:01:49;;;;;;;18.93;3.20;;;13.40;99.90;;;;;;7282320;19;20238;-78
2024/04/04 04:04:16;;;;;;;14.60;2.90;;;13.30;99.90;;;;;;7283396;19;20190;-78
2024/04/04 04:06:42;;;;;;;19.13;2.87;;;13.40;99.90;;;;;;7306722;19;20202;-79
2024/04/04 04:09:08;;;;;;;21.50;2.80;;;13.40;99.90;;;;;;7281961;19;20189;-79
2024/04/04 04:11:34;;;;;;;22.00;3.33;;;13.50;99.90;;;;;;7280753;19;20667;-78
2024/04/04 04:13:59;;;;;;;20.27;3.13;;;13.50;99.90;;;;;;7283472;19;20192;-79
2024/04/04 04:16:25;;;;;;;14.83;2.43;;;13.60;99.90;;;;;;7282785;19;20255;-79
2024/04/04 04:18:51;;;;;;;15.17;2.60;;;13.50;99.90;;;;;;7281406;19;20191;-78
2024/04/04 04:21:24;;;;;;;13.60;2.50;;;13.40;99.90;;;;;;7282665;19;20192;-79
2024/04/04 04:23:51;;;;;;;15.67;2.23;;;13.20;99.90;;;;;;7283369;19;20213;-79
2024/04/04 04:26:18;;;;;;;16.03;2.93;;;13.10;99.90;;;;;;7283565;19;20210;-78
2024/04/04 04:28:46;;;;;;;16.30;2.90;;;13.20;99.90;;;;;;7303092;19;20188;-79
2024/04/04 04:31:28;;;;;;;13.60;2.67;;;13.30;99.90;;;;;;7281511;19;20201;-79
2024/04/04 04:33:55;;;;;;;15.77;2.40;;;13.30;99.90;;;;;;7180343;19;2006410;-79
2024/04/04 04:36:31;;;;;;;13.37;2.67;;;13.40;99.90;;;;;;7282965;19;20311;-79
2024/04/04 04:38:57;;;;;;;16.33;2.67;;;13.40;99.90;;;;;;7281238;19;20192;-79
2024/04/04 04:41:23;;;;;;;15.00;2.27;;;13.40;99.90;;;;;;7281521;19;20235;-79
2024/04/04 04:43:50;;;;;;;16.47;2.50;;;13.40;99.90;;;;;;7280880;19;20191;-79
2024/04/04 04:46:16;;;;;;;13.00;2.30;;;13.40;99.90;;;;;;7277236;19;20208;-79
2024/04/04 04:48:43;;;;;;;14.10;2.20;;;13.40;99.90;;;;;;7303923;19;20216;-79
2024/04/04 04:51:09;;;;;;;15.57;2.60;;;13.30;99.90;;;;;;7281049;19;20226;-79
2024/04/04 04:53:35;;;;;;;11.57;2.47;;;13.40;99.90;;;;;;7282887;19;20669;-78
2024/04/04 04:56:01;;;;;;;14.10;3.03;;;13.40;99.90;;;;;;7278931;19;20214;-79
2024/04/04 04:58:27;;;;;;;13.70;2.47;;;13.40;99.90;;;;;;7278846;19;20543;-79
2024/04/04 05:00:53;;;;;;;15.03;2.10;;;13.50;99.90;;;;;;7281126;19;20264;-78
2024/04/04 05:03:23;;;;;;;12.53;2.33;;;13.50;99.90;;;;;;7281086;19;20216;-79
2024/04/04 05:05:52;;;;;;;12.33;2.03;;;13.50;99.90;;;;;;7277993;19;20230;-78
2024/04/04 05:08:19;;;;;;;14.07;2.03;;;13.40;99.90;;;;;;7278852;19;20185;-78
2024/04/04 05:10:46;;;;;;;10.53;1.87;;;13.40;99.90;;;;;;7293810;19;20221;-79
2024/04/04 05:13:11;;;;;;;10.93;2.33;;;13.50;99.90;;;;;;7303352;19;20236;-78
2024/04/04 05:15:46;;;;;;;10.53;2.17;;;13.50;99.90;;;;;;7279894;19;20300;-79
2024/04/04 05:18:12;;;;;;;10.63;2.10;;;13.50;99.90;;;;;;7280647;19;20182;-79
2024/04/04 05:20:38;;;;;;;10.33;2.30;;;13.50;99.90;;;;;;7281409;19;20189;-78
2024/04/04 05:23:03;;;;;;;12.07;2.50;;;13.50;99.90;;;;;;7279917;19;20215;-79
2024/04/04 05:25:29;;;;;;;11.30;2.23;;;13.60;99.90;;;;;;7279446;19;20190;-79
2024/04/04 05:27:55;;;;;;;13.90;2.37;;;13.60;99.90;;;;;;7280618;19;20744;-79
2024/04/04 05:30:21;;;;;;;9.43;1.93;;;13.60;99.90;;;;;;7281262;19;20201;-78
2024/04/04 05:32:46;;;;;;;13.70;1.90;;;13.60;99.90;;;;;;7279070;19;20222;-78
2024/04/04 05:35:14;;;;;;;12.20;2.00;;;13.60;99.90;;;;;;7301963;19;20193;-79
2024/04/04 05:37:40;;;;;;;12.80;2.27;;;13.60;99.90;;;;;;7282988;19;20203;-79
2024/04/04 05:40:08;;;;;;;11.27;1.97;;;13.70;99.90;;;;;;7288213;19;21732;-79
2024/04/04 05:42:34;;;;;;;11.97;2.40;;;13.60;99.90;;;;;;7286447;19;20197;-79
2024/04/04 05:45:00;;;;;;;15.43;2.40;;;13.70;99.90;;;;;;7286019;19;20227;-78
2024/04/04 05:47:26;;;;;;;12.80;2.90;;;13.70;99.90;;;;;;7288443;19;20197;-79
2024/04/04 05:49:52;;;;;;;11.13;2.27;;;13.80;99.90;;;;;;7288853;19;20210;-79
2024/04/04 05:52:19;;;;;;;12.20;2.10;;;13.80;99.90;;;;;;7284078;19;20235;-79
2024/04/04 05:54:48;;;;;;;8.63;1.77;;;13.70;99.90;;;;;;7294252;19;20223;-79
2024/04/04 05:57:14;;;;;;;5.97;1.70;;;13.70;99.90;;;;;;7308586;19;20184;-79
2024/04/04 05:59:40;;;;;;;8.17;2.10;;;13.60;99.90;;;;;;7284703;19;20655;-79
2024/04/04 06:02:06;;;;;;;10.53;1.87;;;13.60;99.90;;;;;;7283653;19;20195;-79
2024/04/04 06:04:32;;;;;;;7.60;1.50;;;13.50;99.90;;;;;;7285358;19;20605;-79
2024/04/04 06:06:57;;;;;;;8.90;1.33;;;13.50;99.90;;;;;;7287558;19;20193;-79
2024/04/04 06:09:23;;;;;;;9.57;1.70;;;13.50;99.90;;;;;;7286604;19;20192;-79
2024/04/04 06:11:49;;;;;;;7.20;1.50;;;13.40;99.90;;;;;;7284050;19;20203;-79
2024/04/04 06:14:15;;;;;;;5.67;1.43;;;13.50;99.90;;;;;;7301585;19;20200;-78
2024/04/04 06:16:40;;;;;;;8.67;1.23;;;13.50;99.90;;;;;;7301002;19;20220;-79
2024/04/04 06:19:06;;;;;;;7.40;1.70;;;13.50;99.90;;;;;;7286418;19;20203;-79
2024/04/04 06:21:32;;;;;;;5.47;1.07;;;13.50;99.90;;;;;;7285583;19;20214;-79
2024/04/04 06:23:58;;;;;;;5.40;1.20;;;13.40;99.90;;;;;;7287321;19;20195;-79
2024/04/04 06:26:26;;;;;;;7.30;1.10;;;13.40;99.90;;;;;;7283725;19;20648;-78
2024/04/04 06:28:55;;;;;;;7.10;0.97;;;13.40;99.90;;;;;;7285689;19;20200;-78
2024/04/04 06:31:22;;;;;;;3.90;0.90;;;13.40;99.90;;;;;;7284600;19;20263;-78
2024/04/04 06:33:47;;;;;;;8.43;1.30;;;13.30;99.90;;;;;;7285119;19;20191;-78
2024/04/04 06:36:13;;;;;;;6.17;1.33;;;13.30;99.90;;;;;;7309157;19;20196;-78
2024/04/04 06:38:40;;;;;;;6.83;1.10;;;13.30;99.90;;;;;;7285122;19;20188;-78
2024/04/04 06:41:06;;;;;;;8.37;1.67;;;13.20;99.90;;;;;;7285581;19;20193;-78
2024/04/04 06:43:32;;;;;;;10.57;1.33;;;13.20;99.90;;;;;;7286409;19;20667;-79
2024/04/04 06:45:58;;;;;;;5.73;1.30;;;13.20;99.90;;;;;;7286068;19;20195;-78
2024/04/04 06:48:24;;;;;;;5.53;1.07;;;13.30;99.90;;;;;;7285634;19;20291;-77
2024/04/04 06:50:50;;;;;;;3.93;1.00;;;13.20;99.90;;;;;;7284829;19;20251;-77
2024/04/04 06:53:15;;;;;;;4.13;1.07;;;13.20;99.90;;;;;;7294320;19;20232;-78
2024/04/04 06:55:41;;;;;;;6.77;1.00;;;13.30;99.90;;;;;;7307746;19;20191;-78
2024/04/04 06:58:07;;;;;;;7.77;0.90;;;13.20;99.90;;;;;;7283849;19;20196;-78
2024/04/04 07:00:33;;;;;;;3.43;0.90;;;13.20;99.90;;;;;;7285598;19;20207;-80
2024/04/04 07:02:59;;;;;;;5.57;0.90;;;13.30;99.90;;;;;;7284804;19;20185;-77
2024/04/04 07:05:25;;;;;;;6.60;0.97;;;13.30;99.90;;;;;;7285616;19;20185;-77
2024/04/04 07:07:53;;;;;;;2.93;1.00;;;13.40;99.90;;;;;;7284823;19;20187;-77
2024/04/04 07:10:19;;;;;;;2.87;0.80;;;13.40;99.90;;;;;;7285169;19;20184;-76
2024/04/04 07:12:45;;;;;;;6.67;1.40;;;13.50;99.90;;;;;;7300942;19;20345;-77
2024/04/04 07:15:10;;;;;;;3.80;0.87;;;13.20;99.90;;;;;;7296649;19;20191;-77
2024/04/04 07:17:36;;;;;;;5.03;0.93;;;13.10;99.90;;;;;;7281751;19;20189;-77
2024/04/04 07:20:02;;;;;;;3.27;0.70;;;13.10;99.90;;;;;;7283585;19;20204;-77
2024/04/04 07:22:28;;;;;;;3.83;0.70;;;13.10;99.90;;;;;;7285271;19;20203;-77
2024/04/04 07:24:53;;;;;;;5.50;0.90;;;13.10;99.90;;;;;;7284312;19;20306;-78
2024/04/04 07:27:19;;;;;;;3.50;0.90;;;13.20;99.90;;;;;;7284333;19;20191;-77
2024/04/04 07:29:46;;;;;;;4.60;0.90;;;13.30;99.90;;;;;;7297090;19;20187;-77
2024/04/04 07:32:12;;;;;;;3.90;0.70;;;13.30;99.90;;;;;;7306384;19;20200;-77
2024/04/04 07:34:38;;;;;;;3.90;0.63;;;13.40;99.90;;;;;;7283492;19;20893;-77
2024/04/04 07:37:04;;;;;;;1.90;0.60;;;13.40;99.90;;;;;;7281778;19;20658;-78
2024/04/04 07:39:31;;;;;;;1.37;0.40;;;13.50;99.90;;;;;;7281352;19;20188;-78
2024/04/04 07:41:57;;;;;;;4.13;0.60;;;13.50;99.90;;;;;;7282088;19;20223;-78
2024/04/04 07:44:23;;;;;;;3.00;0.70;;;13.50;99.90;;;;;;7282125;19;20187;-77
2024/04/04 07:46:53;;;;;;;2.70;0.50;;;13.60;99.90;;;;;;7281231;19;20332;-78
2024/04/04 07:49:19;;;;;;;3.33;0.60;;;13.50;99.90;;;;;;7285556;19;20203;-78
2024/04/04 07:51:45;;;;;;;2.77;0.50;;;13.50;99.90;;;;;;7304876;19;20188;-78
2024/04/04 07:54:12;;;;;;;1.73;0.37;;;13.50;99.90;;;;;;7283349;19;20629;-78
2024/04/04 07:56:38;;;;;;;1.40;0.60;;;13.50;99.90;;;;;;7282393;19;20185;-78
2024/04/04 07:59:04;;;;;;;3.27;0.50;;;13.60;99.90;;;;;;7283589;19;20196;-78
2024/04/04 08:01:30;;;;;;;1.97;0.40;;;13.50;99.90;;;;;;7280367;19;20187;-78
2024/04/04 08:03:56;;;;;;;4.20;0.57;;;13.40;99.90;;;;;;7280086;19;20198;-78
2024/04/04 08:06:21;;;;;;;4.90;0.60;;;13.40;99.90;;;;;;7284392;19;20199;-77
2024/04/04 08:08:47;;;;;;;2.10;0.57;;;13.40;99.90;;;;;;7284738;19;20238;-77
2024/04/04 08:11:14;;;;;;;1.93;0.60;;;13.60;99.90;;;;;;7304389;19;20229;-78
2024/04/04 08:13:41;;;;;;;2.33;0.47;;;13.70;99.90;;;;;;7281706;19;20179;-78
2024/04/04 08:16:08;;;;;;;6.13;0.63;;;13.70;99.90;;;;;;7283520;19;20204;-77
2024/04/04 08:18:34;;;;;;;2.60;0.60;;;13.70;99.90;;;;;;7280417;19;20189;-78
2024/04/04 08:21:00;;;;;;;4.90;0.70;;;13.70;99.90;;;;;;7282430;19;20202;-78
2024/04/04 08:23:26;;;;;;;2.90;0.53;;;13.80;99.90;;;;;;7280509;19;20193;-78
2024/04/04 08:25:54;;;;;;;4.57;0.90;;;13.70;99.90;;;;;;7282006;19;20323;-78
2024/04/04 08:28:19;;;;;;;5.17;0.70;;;13.70;99.90;;;;;;7281617;19;20719;-78
2024/04/04 08:30:46;;;;;;;3.60;0.63;;;13.80;99.90;;;;;;7295718;19;20192;-78
2024/04/04 08:33:12;;;;;;;1.83;0.50;;;13.80;99.90;;;;;;7298483;19;20187;-77
2024/04/04 08:35:38;;;;;;;2.83;0.70;;;13.90;99.90;;;;;;7280989;19;20195;-78
2024/04/04 08:38:03;;;;;;;3.60;0.60;;;13.90;99.90;;;;;;7282358;19;20197;-78
2024/04/04 08:40:31;;;;;;;3.10;0.97;;;13.80;99.90;;;;;;7281350;19;20605;-78
2024/04/04 08:42:57;;;;;;;2.20;0.50;;;13.70;99.90;;;;;;7281135;19;20193;-78
2024/04/04 08:45:31;;;;;;;1.53;0.47;;;13.50;99.90;;;;;;7283182;19;20190;-78
2024/04/04 08:48:00;;;;;;;1.97;0.43;;;13.30;99.90;;;;;;7282890;19;20191;-78
2024/04/04 08:50:26;;;;;;;2.40;0.90;;;13.00;99.90;;;;;;7280307;19;20213;-78
2024/04/04 08:52:52;;;;;;;5.13;1.20;;;12.90;99.90;;;;;;7282387;19;20741;-78
2024/04/04 08:55:18;;;;;;;4.07;1.20;;;12.80;99.90;;;;;;7281023;19;20199;-78
2024/04/04 08:57:44;;;;;;;4.83;1.10;;;12.70;99.90;;;;;;7302663;19;20185;-78
2024/04/04 09:00:11;;;;;;;4.17;0.83;;;12.80;99.90;;;;;;7281723;19;20190;-78
2024/04/04 09:02:40;;;;;;;2.23;0.70;;;13.00;99.90;;;;;;7280643;19;20949;-78
2024/04/04 09:05:07;;;;;;;3.63;0.73;;;13.20;99.90;;;;;;7280800;19;20215;-78
2024/04/04 09:07:36;;;;;;;5.73;1.17;;;13.70;99.90;;;;;;7278808;19;20200;-78
2024/04/04 09:10:03;;;;;;;4.30;0.80;;;14.50;99.90;;;;;;7279904;19;20194;-78
2024/04/04 09:12:29;;;;;;;3.17;0.60;;;14.60;99.90;;;;;;7283930;19;20193;-78
2024/04/04 09:14:57;;;;;;;4.30;0.80;;;14.60;99.90;;;;;;7289389;19;20190;-78
2024/04/04 09:17:23;;;;;;;8.03;1.83;;;14.50;99.90;;;;;;7287496;19;20184;-78
2024/04/04 09:19:55;;;;;;;4.07;0.80;;;14.30;99.90;;;;;;7286848;19;20200;-78
2024/04/04 09:22:27;;;;;;;4.07;0.67;;;14.30;99.90;;;;;;7289993;19;20209;-78
2024/04/04 09:24:59;;;;;;;3.13;0.60;;;14.30;99.90;;;;;;7289158;19;20311;-78
2024/04/04 09:27:26;;;;;;;3.90;0.80;;;14.20;99.90;;;;;;7287546;19;20543;-78
2024/04/04 09:29:52;;;;;;;2.47;0.50;;;14.30;99.90;;;;;;7287313;19;20189;-78
2024/04/04 09:32:19;;;;;;;4.50;1.10;;;14.20;99.90;;;;;;7288379;19;20202;-77
2024/04/04 09:34:46;;;;;;;5.57;0.87;;;14.20;99.90;;;;;;7306379;19;20209;-78
2024/04/04 09:37:16;;;;;;;3.47;0.80;;;14.20;99.90;;;;;;7309195;19;20182;-79
2024/04/04 09:39:42;;;;;;;3.23;0.67;;;14.30;99.90;;;;;;7288340;19;20203;-79
2024/04/04 09:42:09;;;;;;;4.30;0.73;;;14.40;99.90;;;;;;7287881;19;20588;-78
2024/04/04 09:44:36;;;;;;;7.00;1.20;;;14.40;99.90;;;;;;7283478;19;21506;-78
2024/04/04 09:47:06;;;;;;;3.87;1.07;;;14.50;99.90;;;;;;7283215;19;20219;-78
2024/04/04 09:49:32;;;;;;;5.33;0.87;;;14.70;99.90;;;;;;7285598;19;20188;-78
2024/04/04 09:52:01;;;;;;;5.23;0.70;;;15.30;99.90;;;;;;7283052;19;20641;-78
2024/04/04 09:54:27;;;;;;;6.47;1.10;;;16.60;99.90;;;;;;7282104;19;20183;-78
2024/04/04 09:56:54;;;;;;;3.77;0.93;;;18.90;99.90;;;;;;7287241;19;20198;-79
2024/04/04 09:59:28;;;;;;;4.40;0.70;;;20.20;99.90;;;;;;7286598;19;20692;-78
2024/04/04 10:02:02;;;;;;;3.43;0.70;;;20.50;99.90;;;;;;7289761;19;20660;-78
2024/04/04 10:04:37;;;;;;;3.73;1.00;;;20.60;99.90;;;;;;7289150;19;20588;-79
2024/04/04 10:07:04;;;;;;;3.23;0.80;;;21.40;99.90;;;;;;7286558;19;20212;-79
2024/04/04 10:09:41;;;;;;;4.17;0.80;;;23.20;99.90;;;;;;7286284;19;20187;-79
2024/04/04 10:12:09;;;;;;;5.63;0.90;;;23.00;99.90;;;;;;7284292;19;20188;-79
2024/04/04 10:14:36;;;;;;;7.43;0.90;;;22.70;99.90;;;;;;7279610;19;20298;-78
2024/04/04 10:17:05;;;;;;;7.83;1.30;;;21.70;99.90;;;;;;7281857;19;20201;-79
2024/04/04 10:19:34;;;;;;;8.17;1.30;;;21.10;99.90;;;;;;7284690;19;20190;-79
2024/04/04 10:22:02;;;;;;;7.30;0.90;;;20.30;99.90;;;;;;7285308;19;20188;-78
2024/04/04 10:24:29;;;;;;;8.57;1.60;;;19.80;99.90;;;;;;7283336;19;20196;-79
2024/04/04 10:27:02;;;;;;;10.70;1.60;;;19.30;99.90;;;;;;7285926;19;20193;-79
2024/04/04 10:29:33;;;;;;;7.33;1.20;;;19.10;99.90;;;;;;7286485;19;20659;-79
2024/04/04 10:31:59;;;;;;;9.53;1.50;;;18.80;99.90;;;;;;7285181;19;20203;-79
2024/04/04 10:34:25;;;;;;;7.60;1.40;;;18.30;99.90;;;;;;7285291;19;20562;-79
2024/04/04 10:36:50;;;;;;;8.37;1.40;;;17.90;99.90;;;;;;7285717;19;20207;-79
2024/04/04 10:39:17;;;;;;;8.87;1.40;;;17.30;99.90;;;;;;7296179;19;20204;-78
2024/04/04 10:41:46;;;;;;;9.40;1.53;;;17.30;99.90;;;;;;7307058;19;20189;-79
2024/04/04 10:44:20;;;;;;;7.27;1.10;;;17.70;99.90;;;;;;7286584;19;20193;-79
2024/04/04 10:46:51;;;;;;;7.33;1.60;;;18.20;99.90;;;;;;7278228;19;20682;-78
2024/04/04 10:49:18;;;;;;;8.73;1.33;;;18.80;99.90;;;;;;7293199;19;20302;-78
2024/04/04 10:52:00;;;;;;;7.67;1.30;;;19.50;99.90;;;;;;7305318;19;20659;-79
2024/04/04 10:54:27;;;;;;;8.40;1.30;;;19.70;99.90;;;;;;7182456;19;2005810;-78
2024/04/04 10:56:53;;;;;;;10.00;1.80;;;19.50;99.90;;;;;;7284338;19;20188;-78
2024/04/04 10:59:20;;;;;;;7.10;1.23;;;19.10;99.90;;;;;;7283171;19;20256;-78
2024/04/04 11:01:51;;;;;;;8.03;1.50;;;18.60;99.90;;;;;;7295654;19;20216;-78
2024/04/04 11:04:21;;;;;;;8.57;1.30;;;18.90;99.90;;;;;;7292933;19;20293;-78
2024/04/04 11:06:48;;;;;;;6.53;1.30;;;18.60;99.90;;;;;;7290436;19;20211;-78
2024/04/04 11:09:15;;;;;;;9.67;1.40;;;18.50;99.90;;;;;;7304914;19;20218;-78
2024/04/04 11:11:52;;;;;;;10.90;1.50;;;18.60;99.90;;;;;;7283426;19;20196;-78
2024/04/04 11:14:18;;;;;;;8.70;1.60;;;18.50;99.90;;;;;;7262535;19;20206;-77
2024/04/04 11:16:45;;;;;;;13.33;1.80;;;19.80;99.90;;;;;;7306233;19;20192;-78
2024/04/04 11:19:12;;;;;;;10.63;2.20;;;20.50;99.90;;;;;;7282065;19;20543;-78
2024/04/04 11:21:38;;;;;;;11.93;2.00;;;21.60;99.90;;;;;;7285741;19;20198;-78
2024/04/04 11:24:05;;;;;;;8.23;1.50;;;22.00;99.90;;;;;;7285524;19;20639;-78
2024/04/04 11:26:31;;;;;;;11.53;2.00;;;21.20;99.90;;;;;;7282846;19;20190;-79
2024/04/04 11:28:58;;;;;;;13.53;2.10;;;21.20;99.90;;;;;;7284005;19;20991;-78
2024/04/04 11:31:25;;;;;;;15.93;2.47;;;20.50;99.90;;;;;;7282304;19;20200;-78
2024/04/04 11:33:51;;;;;;;14.60;2.77;;;20.20;99.90;;;;;;7347702;19;20197;-78
2024/04/04 11:36:16;;;;;;;14.33;2.30;;;21.20;99.90;;;;;;7394109;19;20610;-78
2024/04/04 11:38:43;;;;;;;14.40;2.77;;;21.80;99.90;;;;;;7393701;19;20155;-78
2024/04/04 11:41:09;;;;;;;12.20;2.50;;;22.00;99.90;;;;;;7396446;19;20147;-78
2024/04/04 11:43:35;;;;;;;13.03;2.57;;;22.70;99.90;;;;;;7302331;19;20277;-78
2024/04/04 11:46:02;;;;;;;13.90;2.30;;;22.70;99.90;;;;;;7280306;19;20637;-78
2024/04/04 11:48:28;;;;;;;13.40;2.30;;;22.80;99.90;;;;;;7278545;19;20610;-77
2024/04/04 11:50:53;;;;;;;17.33;3.00;;;22.70;99.90;;;;;;7281521;19;20266;-78
2024/04/04 11:53:19;;;;;;;16.57;2.90;;;22.00;99.90;;;;;;7282404;19;20206;-77
2024/04/04 11:55:45;;;;;;;17.97;2.77;;;20.70;99.90;;;;;;7304870;19;20317;-78
2024/04/04 11:58:11;;;;;;;18.13;3.23;;;19.90;99.90;;;;;;7281639;19;21287;-77
2024/04/04 12:00:37;;;;;;;17.97;3.03;;;20.40;99.90;;;;;;7282625;19;20287;-77
2024/04/04 12:03:06;;;;;;;14.93;3.07;;;20.90;99.90;;;;;;7281689;19;20189;-77
2024/04/04 12:05:32;;;;;;;13.73;2.70;;;21.40;99.90;;;;;;7278901;19;20198;-78
2024/04/04 12:07:58;;;;;;;19.47;2.93;;;21.50;99.90;;;;;;7298710;19;20202;-77
2024/04/04 12:10:25;;;;;;;14.47;2.80;;;21.50;99.90;;;;;;7282482;19;20200;-78
2024/04/04 12:12:51;;;;;;;16.57;2.77;;;21.70;99.90;;;;;;7281129;19;20258;-78
2024/04/04 12:15:17;;;;;;;15.07;2.90;;;21.60;99.90;;;;;;7289436;19;20312;-78
2024/04/04 12:17:45;;;;;;;12.17;2.73;;;22.30;99.90;;;;;;7302308;19;20195;-78
2024/04/04 12:20:17;;;;;;;16.77;2.90;;;22.50;99.90;;;;;;7281523;19;20204;-79
2024/04/04 12:22:43;;;;;;;17.23;2.90;;;22.20;99.90;;;;;;7281070;19;20199;-78
2024/04/04 12:25:09;;;;;;;12.80;2.73;;;22.20;99.90;;;;;;7281512;19;20202;-78
2024/04/04 12:27:35;;;;;;;13.97;2.60;;;22.70;99.90;;;;;;7283008;19;20589;-79
2024/04/04 12:30:01;;;;;;;13.37;2.33;;;23.50;99.90;;;;;;7281763;19;20217;-78
2024/04/04 12:32:27;;;;;;;13.63;2.47;;;23.70;99.90;;;;;;7281944;19;20192;-78
2024/04/04 12:34:53;;;;;;;15.20;2.60;;;23.80;99.90;;;;;;7280837;19;20189;-78
2024/04/04 12:37:19;;;;;;;15.30;2.60;;;23.60;99.90;;;;;;7282655;19;20196;-78
2024/04/04 12:39:44;;;;;;;13.23;2.17;;;23.20;99.90;;;;;;7305336;19;20189;-78